Time;durP1;ratioP1;P1;durP2;ratioP2;P2;SDS_P1;SDS_P2;PMS_P1;PMS_P2;Temp;Humidity;BMP_temperature;BMP_pressure;BME280_temperature;BME280_humidity;BME280_pressure;Samples;Min_cycle;Max_cycle;Signal;HPM_P1;HPM_P2
2022/01/16 00:04:29;;;;;;;;;;;;;;;;;;5017202;28;19909;-17
2022/01/16 00:06:48;;;;;;;;;;;;;;;;;;5014670;28;19921;-17
2022/01/16 00:09:14;;;;;;;;;;;;;;;;;;5017164;28;19913;-17
2022/01/16 00:11:41;;;;;;;;;;;;;;;;;;5017396;28;19949;-18
2022/01/16 00:14:07;;;;;;;;;;;;;;;;;;5017271;28;19914;-17
2022/01/16 00:16:33;;;;;;;;;;;;;;;;;;5017571;28;20296;-18
2022/01/16 00:18:59;;;;;;;;;;;;;;;;;;5017031;28;19924;-18
2022/01/16 00:21:25;;;;;;;;;;;;;;;;;;5017723;28;19967;-18
2022/01/16 00:23:52;;;;;;;;;;;;;;;;;;5016795;28;19913;-18
2022/01/16 00:26:18;;;;;;;;;;;;;;;;;;5015867;28;19980;-17
2022/01/16 00:28:44;;;;;;;;;;;;;;;;;;5015831;28;19964;-17
2022/01/16 00:31:10;;;;;;;;;;;;;;;;;;5016702;28;19914;-18
2022/01/16 00:33:42;;;;;;;;;;;;;;;;;;5016661;28;20434;-18
2022/01/16 00:36:08;;;;;;;;;;;;;;;;;;5017198;28;19916;-18
2022/01/16 00:38:34;;;;;;;;;;;;;;;;;;5015714;28;20272;-18
2022/01/16 00:41:00;;;;;;;;;;;;;;;;;;5016890;28;19913;-18
2022/01/16 00:43:26;;;;;;;;;;;;;;;;;;5016367;28;19936;-17
2022/01/16 00:45:52;;;;;;;;;;;;;;;;;;5017017;28;19917;-18
2022/01/16 00:48:18;;;;;;;;;;;;;;;;;;5016960;28;20010;-18
2022/01/16 00:50:44;;;;;;;;;;;;;;;;;;5016332;28;19968;-18
2022/01/16 00:53:10;;;;;;;;;;;;;;;;;;5016233;28;19968;-18
2022/01/16 00:55:38;;;;;;;;;;;;;;;;;;5016122;28;19936;-18
2022/01/16 00:58:04;;;;;;;;;;;;;;;;;;5016151;28;20000;-18
2022/01/16 01:00:33;;;;;;;;;;;;;;;;;;5016254;28;20213;-18
2022/01/16 01:02:59;;;;;;;;;;;;;;;;;;5016480;28;20289;-18
2022/01/16 01:05:25;;;;;;;;;;;;;;;;;;5015957;28;19954;-18
2022/01/16 01:07:51;;;;;;;;;;;;;;;;;;5015674;28;19921;-18
2022/01/16 01:10:18;;;;;;;;;;;;;;;;;;5014806;28;19913;-18
2022/01/16 01:12:56;;;;;;;;;;;;;;;;;;5015812;28;20403;-18
2022/01/16 01:15:22;;;;;;;;;;;;;;;;;;5016337;28;19920;-19
2022/01/16 01:17:49;;;;;;;;;;;;;;;;;;5015736;28;20417;-18
2022/01/16 01:20:17;;;;;;;;;;;;;;;;;;5015048;28;19913;-18
2022/01/16 01:22:43;;;;;;;;;;;;;;;;;;5016146;28;19953;-18
2022/01/16 01:25:11;;;;;;;;;;;;;;;;;;5015627;28;19920;-18
2022/01/16 01:27:37;;;;;;;;;;;;;;;;;;5015768;28;19913;-18
2022/01/16 01:30:06;;;;;;;;;;;;;;;;;;5015791;28;20305;-19
2022/01/16 01:32:33;;;;;;;;;;;;;;;;;;5015721;28;20303;-18
2022/01/16 01:34:59;;;;;;;;;;;;;;;;;;5015451;28;19917;-18
2022/01/16 01:37:25;;;;;;;;;;;;;;;;;;5015993;28;19914;-18
2022/01/16 01:39:51;;;;;;;;;;;;;;;;;;5015669;28;19923;-18
2022/01/16 01:42:17;;;;;;;;;;;;;;;;;;5015784;28;20249;-18
2022/01/16 01:52:58;;;;;;;;;;;;;;;;;;5015213;28;19924;-18
2022/01/16 01:55:24;;;;;;;;;;;;;;;;;;5015724;28;20359;-18
2022/01/16 01:57:51;;;;;;;;;;;;;;;;;;5015231;28;20052;-19
2022/01/16 02:00:19;;;;;;;;;;;;;;;;;;5015391;28;20230;-18
2022/01/16 02:05:17;;;;;;;;;;;;;;;;;;5015106;28;20264;-18
2022/01/16 02:07:43;;;;;;;;;;;;;;;;;;5014854;28;19925;-20
2022/01/16 02:10:09;;;;;;;;;;;;;;;;;;5014974;28;19909;-18
2022/01/16 02:12:38;;;;;;;;;;;;;;;;;;5015446;28;19913;-18
2022/01/16 02:15:29;;;;;;;;;;;;;;;;;;5015038;28;19936;-18
2022/01/16 02:29:13;;;;;;;;;;;;;;;;;;5015209;28;19987;-18
2022/01/16 02:31:37;;;;;;;;;;;;;;;;;;5018268;28;19917;-18
2022/01/16 02:36:51;;;;;;;;;;;;;;;;;;5019086;28;20317;-18
2022/01/16 02:39:17;;;;;;;;;;;;;;;;;;5019060;28;19909;-18
2022/01/16 02:41:43;;;;;;;;;;;;;;;;;;5018725;28;20252;-18
2022/01/16 02:44:31;;;;;;;;;;;;;;;;;;5018592;28;19913;-18
2022/01/16 02:46:57;;;;;;;;;;;;;;;;;;5018661;28;19948;-18
2022/01/16 02:49:23;;;;;;;;;;;;;;;;;;5018575;28;19913;-18
2022/01/16 02:51:49;;;;;;;;;;;;;;;;;;5018474;28;20331;-18
2022/01/16 02:54:15;;;;;;;;;;;;;;;;;;5018668;28;19924;-18
2022/01/16 02:56:41;;;;;;;;;;;;;;;;;;5018401;28;19913;-18
2022/01/16 02:59:07;;;;;;;;;;;;;;;;;;5018643;28;20264;-18
2022/01/16 03:01:34;;;;;;;;;;;;;;;;;;5018590;28;20008;-18
2022/01/16 03:04:00;;;;;;;;;;;;;;;;;;5018245;28;20014;-18
2022/01/16 03:06:26;;;;;;;;;;;;;;;;;;5018065;28;19913;-19
2022/01/16 03:08:52;;;;;;;;;;;;;;;;;;5018329;28;19924;-18
2022/01/16 03:11:34;;;;;;;;;;;;;;;;;;5018065;28;19917;-18
2022/01/16 03:14:00;;;;;;;;;;;;;;;;;;5018001;28;19924;-18
2022/01/16 03:16:26;;;;;;;;;;;;;;;;;;5017081;28;19985;-18
2022/01/16 03:21:54;;;;;;;;;;;;;;;;;;5018049;28;19921;-17
2022/01/16 03:24:21;;;;;;;;;;;;;;;;;;5018145;28;19913;-18
2022/01/16 03:26:47;;;;;;;;;;;;;;;;;;5018193;28;19961;-18
2022/01/16 03:29:13;;;;;;;;;;;;;;;;;;5018094;28;19918;-18
2022/01/16 03:31:39;;;;;;;;;;;;;;;;;;5017923;28;19940;-17
2022/01/16 03:34:05;;;;;;;;;;;;;;;;;;5017980;28;19910;-18
2022/01/16 03:36:31;;;;;;;;;;;;;;;;;;5018247;28;19997;-18
2022/01/16 03:38:57;;;;;;;;;;;;;;;;;;5017890;28;20257;-18
2022/01/16 03:41:27;;;;;;;;;;;;;;;;;;5017659;28;20221;-18
2022/01/16 03:43:53;;;;;;;;;;;;;;;;;;5017470;28;19956;-18
2022/01/16 03:46:19;;;;;;;;;;;;;;;;;;5018179;28;19932;-18
2022/01/16 03:48:45;;;;;;;;;;;;;;;;;;5017492;28;19967;-17
2022/01/16 03:51:11;;;;;;;;;;;;;;;;;;5017408;28;19945;-18
2022/01/16 03:53:37;;;;;;;;;;;;;;;;;;5017321;28;20352;-17
2022/01/16 03:56:03;;;;;;;;;;;;;;;;;;5017402;28;19913;-18
2022/01/16 03:58:29;;;;;;;;;;;;;;;;;;5017311;28;20271;-18
2022/01/16 04:00:55;;;;;;;;;;;;;;;;;;5017343;28;19924;-17
2022/01/16 04:03:21;;;;;;;;;;;;;;;;;;5017158;28;19913;-17
2022/01/16 04:05:47;;;;;;;;;;;;;;;;;;5017418;28;19913;-17
2022/01/16 04:08:13;;;;;;;;;;;;;;;;;;5017003;28;20407;-18
2022/01/16 04:10:39;;;;;;;;;;;;;;;;;;5016971;28;19928;-18
2022/01/16 04:13:05;;;;;;;;;;;;;;;;;;5017004;28;19951;-18
2022/01/16 04:15:31;;;;;;;;;;;;;;;;;;5016995;28;19972;-18
2022/01/16 04:17:57;;;;;;;;;;;;;;;;;;5017414;28;19913;-18
2022/01/16 04:20:24;;;;;;;;;;;;;;;;;;5016928;28;20004;-18
2022/01/16 04:22:50;;;;;;;;;;;;;;;;;;5016784;28;19918;-18
2022/01/16 04:25:18;;;;;;;;;;;;;;;;;;5016795;28;19951;-18
2022/01/16 04:27:44;;;;;;;;;;;;;;;;;;5016838;28;19944;-18
2022/01/16 04:30:10;;;;;;;;;;;;;;;;;;5017170;28;19940;-18
2022/01/16 04:32:36;;;;;;;;;;;;;;;;;;5016647;28;19988;-18
2022/01/16 04:35:02;;;;;;;;;;;;;;;;;;5017168;28;19913;-18
2022/01/16 04:37:28;;;;;;;;;;;;;;;;;;5015595;28;20376;-18
2022/01/16 04:39:59;;;;;;;;;;;;;;;;;;5017033;28;19924;-18
2022/01/16 04:45:11;;;;;;;;;;;;;;;;;;5016772;28;20375;-19
2022/01/16 04:47:37;;;;;;;;;;;;;;;;;;5016843;28;19914;-18
2022/01/16 04:50:03;;;;;;;;;;;;;;;;;;5016248;28;20391;-18
2022/01/16 04:52:29;;;;;;;;;;;;;;;;;;5016783;28;19917;-18
2022/01/16 04:54:55;;;;;;;;;;;;;;;;;;5015181;28;19921;-18
2022/01/16 04:57:21;;;;;;;;;;;;;;;;;;5016060;28;20242;-18
2022/01/16 04:59:46;;;;;;;;;;;;;;;;;;5014902;28;19913;-18
2022/01/16 05:02:13;;;;;;;;;;;;;;;;;;5015808;28;19910;-18
2022/01/16 05:04:39;;;;;;;;;;;;;;;;;;5016521;28;19953;-18
2022/01/16 05:07:05;;;;;;;;;;;;;;;;;;5015656;28;19925;-18
2022/01/16 05:09:31;;;;;;;;;;;;;;;;;;5015811;28;19945;-19
2022/01/16 05:11:59;;;;;;;;;;;;;;;;;;5015541;28;19976;-19
2022/01/16 05:17:10;;;;;;;;;;;;;;;;;;5015784;28;19952;-19
2022/01/16 05:19:37;;;;;;;;;;;;;;;;;;5015625;28;19913;-19
2022/01/16 05:22:03;;;;;;;;;;;;;;;;;;5015452;28;19905;-19
2022/01/16 05:24:32;;;;;;;;;;;;;;;;;;5015490;28;20361;-20
2022/01/16 05:26:58;;;;;;;;;;;;;;;;;;5015441;28;19906;-20
2022/01/16 05:29:24;;;;;;;;;;;;;;;;;;5015457;28;19914;-19
2022/01/16 05:31:50;;;;;;;;;;;;;;;;;;5015249;28;19936;-20
2022/01/16 05:34:21;;;;;;;;;;;;;;;;;;5015332;28;19976;-18
2022/01/16 05:36:47;;;;;;;;;;;;;;;;;;5015440;28;19996;-19
2022/01/16 05:39:13;;;;;;;;;;;;;;;;;;5015421;28;19940;-19
2022/01/16 05:41:39;;;;;;;;;;;;;;;;;;5015277;28;19921;-20
2022/01/16 05:44:05;;;;;;;;;;;;;;;;;;5015224;28;19928;-19
2022/01/16 05:46:31;;;;;;;;;;;;;;;;;;5015212;28;19909;-19
2022/01/16 05:48:57;;;;;;;;;;;;;;;;;;5015087;28;20428;-20
2022/01/16 05:51:23;;;;;;;;;;;;;;;;;;5014941;28;19917;-19
2022/01/16 05:53:51;;;;;;;;;;;;;;;;;;5014916;28;20307;-20
2022/01/16 05:56:17;;;;;;;;;;;;;;;;;;5015290;28;19910;-19
2022/01/16 05:58:43;;;;;;;;;;;;;;;;;;5014932;28;19914;-19
2022/01/16 06:01:09;;;;;;;;;;;;;;;;;;5015417;28;19992;-20
2022/01/16 06:03:35;;;;;;;;;;;;;;;;;;5014882;28;19963;-19
2022/01/16 06:06:01;;;;;;;;;;;;;;;;;;5014839;28;19913;-19
2022/01/16 06:08:27;;;;;;;;;;;;;;;;;;5014434;28;20008;-19
2022/01/16 06:10:54;;;;;;;;;;;;;;;;;;5014768;28;20016;-19
2022/01/16 06:13:20;;;;;;;;;;;;;;;;;;5014740;28;20437;-18
2022/01/16 06:15:46;;;;;;;;;;;;;;;;;;5015224;28;19996;-19
2022/01/16 06:18:12;;;;;;;;;;;;;;;;;;5014892;28;19913;-20
2022/01/16 06:20:40;;;;;;;;;;;;;;;;;;5014629;28;19909;-19
2022/01/16 06:23:06;;;;;;;;;;;;;;;;;;5014535;28;19921;-19
2022/01/16 06:25:32;;;;;;;;;;;;;;;;;;5014682;28;19917;-19
2022/01/16 06:27:58;;;;;;;;;;;;;;;;;;5014906;28;19913;-18
2022/01/16 06:30:24;;;;;;;;;;;;;;;;;;5014775;28;19920;-19
2022/01/16 06:32:50;;;;;;;;;;;;;;;;;;5014695;28;20240;-19
2022/01/16 06:35:16;;;;;;;;;;;;;;;;;;5015035;28;19913;-18
2022/01/16 06:37:42;;;;;;;;;;;;;;;;;;5013691;28;19913;-18
2022/01/16 06:40:08;;;;;;;;;;;;;;;;;;5014567;28;20051;-19
2022/01/16 06:42:37;;;;;;;;;;;;;;;;;;5014604;28;19967;-18
2022/01/16 06:45:03;;;;;;;;;;;;;;;;;;5015176;28;19909;-18
2022/01/16 06:47:29;;;;;;;;;;;;;;;;;;5014736;28;19914;-18
2022/01/16 06:49:55;;;;;;;;;;;;;;;;;;5014926;28;20260;-18
2022/01/16 06:52:21;;;;;;;;;;;;;;;;;;5014342;28;19917;-18
2022/01/16 06:54:47;;;;;;;;;;;;;;;;;;5014630;28;19913;-19
2022/01/16 06:57:13;;;;;;;;;;;;;;;;;;5014391;28;19913;-19
2022/01/16 06:59:39;;;;;;;;;;;;;;;;;;5013830;28;19917;-19
2022/01/16 07:02:05;;;;;;;;;;;;;;;;;;5013894;28;19920;-18
2022/01/16 07:04:31;;;;;;;;;;;;;;;;;;5012822;28;19914;-19
2022/01/16 07:06:57;;;;;;;;;;;;;;;;;;5013857;28;20337;-19
2022/01/16 07:09:23;;;;;;;;;;;;;;;;;;5013877;28;19996;-19
2022/01/16 07:11:49;;;;;;;;;;;;;;;;;;5014235;28;20071;-20
2022/01/16 07:14:15;;;;;;;;;;;;;;;;;;5013863;28;20325;-19
2022/01/16 07:16:41;;;;;;;;;;;;;;;;;;5014244;28;19914;-18
2022/01/16 07:19:07;;;;;;;;;;;;;;;;;;5017858;28;20344;-18
2022/01/16 07:21:33;;;;;;;;;;;;;;;;;;5017954;28;19924;-19
2022/01/16 07:23:59;;;;;;;;;;;;;;;;;;5016703;28;19913;-19
2022/01/16 07:26:25;;;;;;;;;;;;;;;;;;5018249;28;19910;-19
2022/01/16 07:28:51;;;;;;;;;;;;;;;;;;5017620;28;19939;-19
2022/01/16 07:31:17;;;;;;;;;;;;;;;;;;5017710;28;20244;-19
2022/01/16 07:33:43;;;;;;;;;;;;;;;;;;5017800;28;19914;-19
2022/01/16 07:36:09;;;;;;;;;;;;;;;;;;5017526;28;19913;-19
2022/01/16 07:38:35;;;;;;;;;;;;;;;;;;5017291;28;19909;-19
2022/01/16 07:41:01;;;;;;;;;;;;;;;;;;5017883;28;19976;-19
2022/01/16 07:43:27;;;;;;;;;;;;;;;;;;5017336;28;20281;-17
2022/01/16 07:45:53;;;;;;;;;;;;;;;;;;5017332;28;19917;-19
2022/01/16 07:48:19;;;;;;;;;;;;;;;;;;5017409;28;19979;-19
2022/01/16 07:50:45;;;;;;;;;;;;;;;;;;5017381;28;20012;-19
2022/01/16 07:53:11;;;;;;;;;;;;;;;;;;5017445;28;19921;-18
2022/01/16 07:55:37;;;;;;;;;;;;;;;;;;5017223;28;19909;-18
2022/01/16 07:58:03;;;;;;;;;;;;;;;;;;5016184;28;20005;-19
2022/01/16 08:00:29;;;;;;;;;;;;;;;;;;5017051;28;20027;-19
2022/01/16 08:02:57;;;;;;;;;;;;;;;;;;5017154;28;19940;-19
2022/01/16 08:05:23;;;;;;;;;;;;;;;;;;5017515;28;19927;-19
2022/01/16 08:07:49;;;;;;;;;;;;;;;;;;5016843;28;19960;-19
2022/01/16 08:10:15;;;;;;;;;;;;;;;;;;5017173;28;20233;-19
2022/01/16 08:12:41;;;;;;;;;;;;;;;;;;5017040;28;19921;-18
2022/01/16 08:15:07;;;;;;;;;;;;;;;;;;5017465;28;20282;-19
2022/01/16 08:17:35;;;;;;;;;;;;;;;;;;5017221;28;19940;-19
2022/01/16 08:20:01;;;;;;;;;;;;;;;;;;5016582;28;19971;-19
2022/01/16 08:22:27;;;;;;;;;;;;;;;;;;5016455;28;19914;-19
2022/01/16 08:24:53;;;;;;;;;;;;;;;;;;5016872;28;19972;-19
2022/01/16 08:27:20;;;;;;;;;;;;;;;;;;5016606;28;19913;-19
2022/01/16 08:29:46;;;;;;;;;;;;;;;;;;5016674;28;19921;-19
2022/01/16 08:32:12;;;;;;;;;;;;;;;;;;5016629;28;19914;-19
2022/01/16 08:34:38;;;;;;;;;;;;;;;;;;5015566;28;19914;-19
2022/01/16 08:37:04;;;;;;;;;;;;;;;;;;5016349;28;19924;-19
2022/01/16 08:39:30;;;;;;;;;;;;;;;;;;5016325;28;19922;-19
2022/01/16 08:41:56;;;;;;;;;;;;;;;;;;5016287;28;19913;-18
2022/01/16 08:44:22;;;;;;;;;;;;;;;;;;5016545;28;19972;-18
2022/01/16 08:46:48;;;;;;;;;;;;;;;;;;5016214;28;19960;-18
2022/01/16 08:49:14;;;;;;;;;;;;;;;;;;5016108;28;19948;-18
2022/01/16 08:51:40;;;;;;;;;;;;;;;;;;5016555;28;20352;-19
2022/01/16 08:54:06;;;;;;;;;;;;;;;;;;5016282;28;19924;-19
2022/01/16 08:56:32;;;;;;;;;;;;;;;;;;5016332;28;19913;-19
2022/01/16 08:58:58;;;;;;;;;;;;;;;;;;5016191;28;19921;-18
2022/01/16 09:01:24;;;;;;;;;;;;;;;;;;5016175;28;20253;-18
2022/01/16 09:03:50;;;;;;;;;;;;;;;;;;5016233;28;19929;-18
2022/01/16 09:06:16;;;;;;;;;;;;;;;;;;5015777;28;19909;-19
2022/01/16 09:08:42;;;;;;;;;;;;;;;;;;5015713;28;19928;-18
2022/01/16 09:11:08;;;;;;;;;;;;;;;;;;5015884;28;20012;-19
2022/01/16 09:13:34;;;;;;;;;;;;;;;;;;5015882;28;19920;-19
2022/01/16 09:16:00;;;;;;;;;;;;;;;;;;5016027;28;19964;-19
2022/01/16 09:18:26;;;;;;;;;;;;;;;;;;5015871;28;19909;-19
2022/01/16 09:20:52;;;;;;;;;;;;;;;;;;5015590;28;20325;-19
2022/01/16 09:23:18;;;;;;;;;;;;;;;;;;5015547;28;20399;-18
2022/01/16 09:25:44;;;;;;;;;;;;;;;;;;5015493;28;19913;-18
2022/01/16 09:28:10;;;;;;;;;;;;;;;;;;5015298;28;19910;-18
2022/01/16 09:30:36;;;;;;;;;;;;;;;;;;5015736;28;20232;-18
2022/01/16 09:33:02;;;;;;;;;;;;;;;;;;5015175;28;19913;-19
2022/01/16 09:35:31;;;;;;;;;;;;;;;;;;5015105;28;19920;-20
2022/01/16 09:37:58;;;;;;;;;;;;;;;;;;5015347;28;20246;-19
2022/01/16 09:40:24;;;;;;;;;;;;;;;;;;5014548;28;19917;-18
2022/01/16 09:42:52;;;;;;;;;;;;;;;;;;5014919;28;20353;-19
2022/01/16 09:45:18;;;;;;;;;;;;;;;;;;5014930;28;20004;-19
2022/01/16 09:47:44;;;;;;;;;;;;;;;;;;5015432;28;19917;-19
2022/01/16 09:50:10;;;;;;;;;;;;;;;;;;5015194;28;20023;-19
2022/01/16 09:52:36;;;;;;;;;;;;;;;;;;5013563;28;19913;-19
2022/01/16 09:55:02;;;;;;;;;;;;;;;;;;5014773;28;20268;-19
2022/01/16 09:57:28;;;;;;;;;;;;;;;;;;5014727;28;19921;-19
2022/01/16 09:59:54;;;;;;;;;;;;;;;;;;5013800;28;19913;-19
2022/01/16 10:02:20;;;;;;;;;;;;;;;;;;5014949;28;19925;-19
2022/01/16 10:04:46;;;;;;;;;;;;;;;;;;5014648;28;19974;-19
2022/01/16 10:07:12;;;;;;;;;;;;;;;;;;5014881;28;20340;-19
2022/01/16 10:09:38;;;;;;;;;;;;;;;;;;5014929;28;19913;-19
2022/01/16 10:12:13;;;;;;;;;;;;;;;;;;5014539;28;20020;-18
2022/01/16 10:14:47;;;;;;;;;;;;;;;;;;5014912;28;19917;-18
2022/01/16 10:17:13;;;;;;;;;;;;;;;;;;5015165;28;20292;-19
2022/01/16 10:19:39;;;;;;;;;;;;;;;;;;5015396;28;19971;-18
2022/01/16 10:22:05;;;;;;;;;;;;;;;;;;5014818;28;19914;-18
2022/01/16 10:24:33;;;;;;;;;;;;;;;;;;5013873;28;19913;-18
2022/01/16 10:26:59;;;;;;;;;;;;;;;;;;5015342;28;20246;-19
2022/01/16 10:29:25;;;;;;;;;;;;;;;;;;5013869;28;19959;-19
2022/01/16 10:31:51;;;;;;;;;;;;;;;;;;5015209;28;19961;-19
2022/01/16 10:34:17;;;;;;;;;;;;;;;;;;5014937;28;20338;-20
2022/01/16 10:36:43;;;;;;;;;;;;;;;;;;5014762;28;19983;-19
2022/01/16 10:39:09;;;;;;;;;;;;;;;;;;5014848;28;19913;-18
2022/01/16 10:41:35;;;;;;;;;;;;;;;;;;5014784;28;19910;-18
2022/01/16 10:44:01;;;;;;;;;;;;;;;;;;5015027;28;19936;-19
2022/01/16 10:46:27;;;;;;;;;;;;;;;;;;5014996;28;20341;-19
2022/01/16 10:48:53;;;;;;;;;;;;;;;;;;5014896;28;19920;-19
2022/01/16 10:51:19;;;;;;;;;;;;;;;;;;5014784;28;19917;-18
2022/01/16 10:53:45;;;;;;;;;;;;;;;;;;5018347;28;19960;-19
2022/01/16 10:56:11;;;;;;;;;;;;;;;;;;5018328;28;19925;-18
2022/01/16 10:58:37;;;;;;;;;;;;;;;;;;5018571;28;20292;-19
2022/01/16 11:01:03;;;;;;;;;;;;;;;;;;5018522;28;19918;-19
2022/01/16 11:03:30;;;;;;;;;;;;;;;;;;5018201;28;19953;-19
2022/01/16 11:05:55;;;;;;;;;;;;;;;;;;5018414;28;19917;-19
2022/01/16 11:08:22;;;;;;;;;;;;;;;;;;5018079;28;20375;-18
2022/01/16 11:10:48;;;;;;;;;;;;;;;;;;5018074;28;19927;-19
2022/01/16 11:13:14;;;;;;;;;;;;;;;;;;5018052;28;19996;-19
2022/01/16 11:15:40;;;;;;;;;;;;;;;;;;5018291;28;20293;-19
2022/01/16 11:18:06;;;;;;;;;;;;;;;;;;5017966;28;19943;-19
2022/01/16 11:20:35;;;;;;;;;;;;;;;;;;5017941;28;19910;-19
2022/01/16 11:23:16;;;;;;;;;;;;;;;;;;5018210;28;19910;-19
2022/01/16 11:25:42;;;;;;;;;;;;;;;;;;5018540;28;20004;-19
2022/01/16 11:28:08;;;;;;;;;;;;;;;;;;5017950;28;19914;-19
2022/01/16 11:30:34;;;;;;;;;;;;;;;;;;5018102;28;20253;-19
2022/01/16 11:33:00;;;;;;;;;;;;;;;;;;5017982;28;20032;-20
2022/01/16 11:35:26;;;;;;;;;;;;;;;;;;5018719;28;19944;-19
2022/01/16 11:37:52;;;;;;;;;;;;;;;;;;5017682;28;19910;-19
2022/01/16 11:40:18;;;;;;;;;;;;;;;;;;5017725;28;20021;-20
2022/01/16 11:42:44;;;;;;;;;;;;;;;;;;5017906;28;19914;-19
2022/01/16 11:45:10;;;;;;;;;;;;;;;;;;5017681;28;20375;-19
2022/01/16 11:47:37;;;;;;;;;;;;;;;;;;5017567;28;19921;-19
2022/01/16 11:50:03;;;;;;;;;;;;;;;;;;5017569;28;20015;-19
2022/01/16 11:52:30;;;;;;;;;;;;;;;;;;5017521;28;19917;-19
2022/01/16 11:54:56;;;;;;;;;;;;;;;;;;5017781;28;19921;-19
2022/01/16 11:57:22;;;;;;;;;;;;;;;;;;5017236;28;20230;-19
2022/01/16 11:59:48;;;;;;;;;;;;;;;;;;5016237;28;20341;-19
2022/01/16 12:02:15;;;;;;;;;;;;;;;;;;5017023;28;19917;-19
2022/01/16 12:04:41;;;;;;;;;;;;;;;;;;5017214;28;19921;-19
2022/01/16 12:07:07;;;;;;;;;;;;;;;;;;5017169;28;19921;-19
2022/01/16 12:09:33;;;;;;;;;;;;;;;;;;5017134;28;20256;-19
2022/01/16 12:11:59;;;;;;;;;;;;;;;;;;5016988;28;19914;-19
2022/01/16 12:14:25;;;;;;;;;;;;;;;;;;5017618;28;19913;-19
2022/01/16 12:16:51;;;;;;;;;;;;;;;;;;5017384;28;19906;-19
2022/01/16 12:19:17;;;;;;;;;;;;;;;;;;5017544;28;20230;-19
2022/01/16 12:21:43;;;;;;;;;;;;;;;;;;5016972;28;19909;-19
2022/01/16 12:24:09;;;;;;;;;;;;;;;;;;5016857;28;19984;-19
2022/01/16 12:26:35;;;;;;;;;;;;;;;;;;5016934;28;20340;-19
2022/01/16 12:29:01;;;;;;;;;;;;;;;;;;5016746;28;19913;-19
2022/01/16 12:31:27;;;;;;;;;;;;;;;;;;5016708;28;19920;-19
2022/01/16 12:33:57;;;;;;;;;;;;;;;;;;5015650;28;19924;-19
2022/01/16 12:36:23;;;;;;;;;;;;;;;;;;5015746;28;20417;-19
2022/01/16 12:38:49;;;;;;;;;;;;;;;;;;5016586;28;19921;-19
2022/01/16 12:41:16;;;;;;;;;;;;;;;;;;5016553;28;19909;-19
2022/01/16 12:43:48;;;;;;;;;;;;;;;;;;5016420;28;19913;-19
2022/01/16 12:46:14;;;;;;;;;;;;;;;;;;5016757;28;19917;-19
2022/01/16 12:48:40;;;;;;;;;;;;;;;;;;5016704;28;19909;-19
2022/01/16 12:51:07;;;;;;;;;;;;;;;;;;5016340;28;20242;-19
2022/01/16 12:53:33;;;;;;;;;;;;;;;;;;5016232;28;19943;-18
2022/01/16 12:55:58;;;;;;;;;;;;;;;;;;5015350;28;20004;-19
2022/01/16 12:58:24;;;;;;;;;;;;;;;;;;5016057;28;19960;-19
2022/01/16 13:00:50;;;;;;;;;;;;;;;;;;5016195;28;20277;-19
2022/01/16 13:03:16;;;;;;;;;;;;;;;;;;5015091;28;19913;-19
2022/01/16 13:05:42;;;;;;;;;;;;;;;;;;5016418;28;19913;-19
2022/01/16 13:08:09;;;;;;;;;;;;;;;;;;5015469;28;20341;-20
2022/01/16 13:10:34;;;;;;;;;;;;;;;;;;5016271;28;19939;-18
2022/01/16 13:13:00;;;;;;;;;;;;;;;;;;5016031;28;19909;-19
2022/01/16 13:15:27;;;;;;;;;;;;;;;;;;5015221;28;19936;-19
2022/01/16 13:17:53;;;;;;;;;;;;;;;;;;5014959;28;20009;-19
2022/01/16 13:20:21;;;;;;;;;;;;;;;;;;5015897;28;19914;-19
2022/01/16 13:22:47;;;;;;;;;;;;;;;;;;5016021;28;19945;-20
2022/01/16 13:25:13;;;;;;;;;;;;;;;;;;5016121;28;20218;-18
2022/01/16 13:27:40;;;;;;;;;;;;;;;;;;5014771;28;19914;-19
2022/01/16 13:30:05;;;;;;;;;;;;;;;;;;5016243;28;19913;-19
2022/01/16 13:32:31;;;;;;;;;;;;;;;;;;5015559;28;19984;-19
2022/01/16 13:34:58;;;;;;;;;;;;;;;;;;5015907;28;19914;-19
2022/01/16 13:37:26;;;;;;;;;;;;;;;;;;5015518;28;19914;-18
2022/01/16 13:39:52;;;;;;;;;;;;;;;;;;5015529;28;19944;-20
2022/01/16 13:42:18;;;;;;;;;;;;;;;;;;5015831;28;19914;-19
2022/01/16 13:44:44;;;;;;;;;;;;;;;;;;5015758;28;20068;-18
2022/01/16 13:47:10;;;;;;;;;;;;;;;;;;5014506;28;19924;-18
2022/01/16 13:49:36;;;;;;;;;;;;;;;;;;5015377;28;19909;-18
2022/01/16 13:52:02;;;;;;;;;;;;;;;;;;5015163;28;19928;-19
2022/01/16 13:54:29;;;;;;;;;;;;;;;;;;5015203;28;19945;-18
2022/01/16 13:56:57;;;;;;;;;;;;;;;;;;5015271;28;19905;-19
2022/01/16 13:59:23;;;;;;;;;;;;;;;;;;5015184;28;19913;-19
2022/01/16 14:01:49;;;;;;;;;;;;;;;;;;5015368;28;19916;-18
2022/01/16 14:04:16;;;;;;;;;;;;;;;;;;5014009;28;20353;-19
2022/01/16 14:06:42;;;;;;;;;;;;;;;;;;5015143;28;19963;-18
2022/01/16 14:09:08;;;;;;;;;;;;;;;;;;5015555;28;19939;-19
2022/01/16 14:11:34;;;;;;;;;;;;;;;;;;5014947;28;19932;-18
2022/01/16 14:14:00;;;;;;;;;;;;;;;;;;5014985;28;19935;-19
2022/01/16 14:16:26;;;;;;;;;;;;;;;;;;5015504;28;19913;-18
2022/01/16 14:24:02;;;;;;;;;;;;;;;;;;5014868;28;19909;-18
2022/01/16 14:26:28;;;;;;;;;;;;;;;;;;5016851;28;19914;-19
2022/01/16 14:28:54;;;;;;;;;;;;;;;;;;5019035;28;19991;-19
2022/01/16 14:31:20;;;;;;;;;;;;;;;;;;5018865;28;20221;-19
2022/01/16 14:33:50;;;;;;;;;;;;;;;;;;5018899;28;19921;-19
2022/01/16 14:36:16;;;;;;;;;;;;;;;;;;5018880;28;19913;-18
2022/01/16 14:38:42;;;;;;;;;;;;;;;;;;5017886;28;20008;-19
2022/01/16 14:41:11;;;;;;;;;;;;;;;;;;5018856;28;19960;-18
2022/01/16 14:43:57;;;;;;;;;;;;;;;;;;5019005;28;20244;-19
2022/01/16 14:46:24;;;;;;;;;;;;;;;;;;5018935;28;20295;-18
2022/01/16 14:48:50;;;;;;;;;;;;;;;;;;5018667;28;19914;-18
2022/01/16 14:51:16;;;;;;;;;;;;;;;;;;5018617;28;19921;-19
2022/01/16 14:53:42;;;;;;;;;;;;;;;;;;5017498;28;20343;-18
2022/01/16 14:56:08;;;;;;;;;;;;;;;;;;5018802;28;19962;-19
2022/01/16 14:58:34;;;;;;;;;;;;;;;;;;5018479;28;19963;-18
2022/01/16 15:01:00;;;;;;;;;;;;;;;;;;5018481;28;19918;-19
2022/01/16 15:03:27;;;;;;;;;;;;;;;;;;5018544;28;20008;-19
2022/01/16 15:05:53;;;;;;;;;;;;;;;;;;5018413;28;20368;-18
2022/01/16 15:08:19;;;;;;;;;;;;;;;;;;5018228;28;19961;-19
2022/01/16 15:10:45;;;;;;;;;;;;;;;;;;5018226;28;19937;-19
2022/01/16 15:13:11;;;;;;;;;;;;;;;;;;5018701;28;19918;-18
2022/01/16 15:15:37;;;;;;;;;;;;;;;;;;5018229;28;19945;-19
2022/01/16 15:18:05;;;;;;;;;;;;;;;;;;5018417;28;20224;-19
2022/01/16 15:20:32;;;;;;;;;;;;;;;;;;5018088;28;20008;-19
2022/01/16 15:22:59;;;;;;;;;;;;;;;;;;5018355;28;19910;-19
2022/01/16 15:25:25;;;;;;;;;;;;;;;;;;5018328;28;19974;-19
2022/01/16 15:27:51;;;;;;;;;;;;;;;;;;5018232;28;19914;-19
2022/01/16 15:30:17;;;;;;;;;;;;;;;;;;5017908;28;19921;-19
2022/01/16 15:32:43;;;;;;;;;;;;;;;;;;5018025;28;19991;-19
2022/01/16 15:35:09;;;;;;;;;;;;;;;;;;5016923;28;19913;-19
2022/01/16 15:37:35;;;;;;;;;;;;;;;;;;5017445;28;20325;-20
2022/01/16 15:40:02;;;;;;;;;;;;;;;;;;5018066;28;19909;-19
2022/01/16 15:42:28;;;;;;;;;;;;;;;;;;5017923;28;20004;-19
2022/01/16 15:44:55;;;;;;;;;;;;;;;;;;5017730;28;19949;-19
2022/01/16 15:47:21;;;;;;;;;;;;;;;;;;5017888;28;20028;-20
2022/01/16 15:49:47;;;;;;;;;;;;;;;;;;5017589;28;19913;-20
2022/01/16 15:52:14;;;;;;;;;;;;;;;;;;5017672;28;19964;-19
2022/01/16 15:54:40;;;;;;;;;;;;;;;;;;5017580;28;19920;-19
2022/01/16 15:57:06;;;;;;;;;;;;;;;;;;5017771;28;20031;-19
2022/01/16 15:59:32;;;;;;;;;;;;;;;;;;5017472;28;19914;-20
2022/01/16 16:01:58;;;;;;;;;;;;;;;;;;5017340;28;19913;-19
2022/01/16 16:04:24;;;;;;;;;;;;;;;;;;5017415;28;19920;-20
2022/01/16 16:06:50;;;;;;;;;;;;;;;;;;5017110;28;20012;-19
2022/01/16 16:09:16;;;;;;;;;;;;;;;;;;5017533;28;19956;-19
2022/01/16 16:11:42;;;;;;;;;;;;;;;;;;5017077;28;19924;-19
2022/01/16 16:14:10;;;;;;;;;;;;;;;;;;5017134;28;19909;-19
2022/01/16 16:16:36;;;;;;;;;;;;;;;;;;5017129;28;19913;-19
2022/01/16 16:19:02;;;;;;;;;;;;;;;;;;5017827;28;19909;-19
2022/01/16 16:21:29;;;;;;;;;;;;;;;;;;5016985;28;19914;-20
2022/01/16 16:23:55;;;;;;;;;;;;;;;;;;5017163;28;19913;-19
2022/01/16 16:26:21;;;;;;;;;;;;;;;;;;5016885;28;20253;-19
2022/01/16 16:28:47;;;;;;;;;;;;;;;;;;5017413;28;19929;-19
2022/01/16 16:31:13;;;;;;;;;;;;;;;;;;5015787;28;19948;-19
2022/01/16 16:33:41;;;;;;;;;;;;;;;;;;5017230;28;19920;-19
2022/01/16 16:36:07;;;;;;;;;;;;;;;;;;5016789;28;19909;-19
2022/01/16 16:38:33;;;;;;;;;;;;;;;;;;5016712;28;19996;-19
2022/01/16 16:40:59;;;;;;;;;;;;;;;;;;5015732;28;19924;-20
2022/01/16 16:43:25;;;;;;;;;;;;;;;;;;5016797;28;20256;-19
2022/01/16 16:45:51;;;;;;;;;;;;;;;;;;5016492;28;20020;-19
2022/01/16 16:48:17;;;;;;;;;;;;;;;;;;5016456;28;19914;-19
2022/01/16 16:50:43;;;;;;;;;;;;;;;;;;5016350;28;20261;-20
2022/01/16 16:53:09;;;;;;;;;;;;;;;;;;5016519;28;19911;-19
2022/01/16 16:55:35;;;;;;;;;;;;;;;;;;5016347;28;19913;-19
2022/01/16 16:58:02;;;;;;;;;;;;;;;;;;5016536;28;20260;-20
2022/01/16 17:00:28;;;;;;;;;;;;;;;;;;5016136;28;19913;-19
2022/01/16 17:02:54;;;;;;;;;;;;;;;;;;5016255;28;20280;-20
2022/01/16 17:05:20;;;;;;;;;;;;;;;;;;5016132;28;20415;-20
2022/01/16 17:07:46;;;;;;;;;;;;;;;;;;5015839;28;19921;-19
2022/01/16 17:10:12;;;;;;;;;;;;;;;;;;5016781;28;19914;-19
2022/01/16 17:12:38;;;;;;;;;;;;;;;;;;5015844;28;20242;-19
2022/01/16 17:15:04;;;;;;;;;;;;;;;;;;5016463;28;19917;-19
2022/01/16 17:17:30;;;;;;;;;;;;;;;;;;5015882;28;19917;-19
2022/01/16 17:19:57;;;;;;;;;;;;;;;;;;5015812;28;20040;-19
2022/01/16 17:22:23;;;;;;;;;;;;;;;;;;5016196;28;19921;-19